Time;durP1;ratioP1;P1;durP2;ratioP2;P2;SDS_P1;SDS_P2;PMS_P1;PMS_P2;Temp;Humidity;BMP_temperature;BMP_pressure;BME280_temperature;BME280_humidity;BME280_pressure;Samples;Min_cycle;Max_cycle;Signal;HPM_P1;HPM_P2
2022/10/14 00:02:24;;;;;;;0.40;0.40;;;12.10;99.90;;;;;;5118578;28;20192;-79
2022/10/14 00:04:50;;;;;;;0.40;0.40;;;12.10;99.90;;;;;;5120840;28;20177;-78
2022/10/14 00:07:16;;;;;;;0.50;0.50;;;12.10;99.90;;;;;;5119044;28;20177;-78
2022/10/14 00:09:41;;;;;;;0.50;0.50;;;12.10;99.90;;;;;;5105625;28;20723;-80
2022/10/14 00:12:07;;;;;;;0.50;0.50;;;12.10;99.90;;;;;;5124613;28;20663;-79
2022/10/14 00:14:32;;;;;;;0.60;0.60;;;12.10;99.90;;;;;;5124736;28;20264;-79
2022/10/14 00:16:58;;;;;;;0.47;0.47;;;12.10;99.90;;;;;;5113165;28;20574;-79
2022/10/14 00:19:24;;;;;;;0.40;0.40;;;12.10;99.90;;;;;;5124553;28;20220;-78
2022/10/14 00:21:49;;;;;;;0.50;0.50;;;12.10;99.90;;;;;;5123472;28;20204;-79
2022/10/14 00:24:16;;;;;;;0.50;0.50;;;12.00;99.90;;;;;;5108923;28;20174;-79
2022/10/14 00:26:42;;;;;;;0.50;0.50;;;12.10;99.90;;;;;;5097892;28;20257;-79
2022/10/14 00:29:12;;;;;;;0.50;0.50;;;12.00;99.90;;;;;;5107567;28;20698;-79
2022/10/14 00:31:38;;;;;;;0.47;0.47;;;12.00;99.90;;;;;;5103743;28;20217;-78
2022/10/14 00:34:04;;;;;;;0.50;0.50;;;11.90;99.90;;;;;;5125700;28;20218;-78
2022/10/14 00:36:29;;;;;;;0.50;0.50;;;12.00;99.90;;;;;;5121005;28;20196;-78
2022/10/14 00:38:55;;;;;;;0.50;0.50;;;12.00;99.90;;;;;;5100045;28;20186;-79
2022/10/14 00:41:24;;;;;;;0.40;0.40;;;11.90;99.90;;;;;;5100652;28;20625;-79
2022/10/14 00:44:01;;;;;;;0.57;0.57;;;11.80;99.90;;;;;;5106618;28;20176;-80
2022/10/14 00:46:51;;;;;;;0.40;0.40;;;11.80;99.90;;;;;;5117068;28;20185;-80
2022/10/14 00:49:24;;;;;;;0.60;0.60;;;11.80;99.90;;;;;;5108801;28;20178;-80
2022/10/14 00:51:54;;;;;;;0.50;0.50;;;11.80;99.90;;;;;;5096321;28;20206;-79
2022/10/14 00:54:24;;;;;;;0.50;0.50;;;11.90;99.90;;;;;;5096399;28;20181;-80
2022/10/14 00:56:51;;;;;;;0.60;0.60;;;11.80;99.90;;;;;;5114298;28;20183;-80
2022/10/14 00:59:17;;;;;;;0.40;0.40;;;11.90;99.90;;;;;;5112353;28;20173;-79
2022/10/14 01:01:43;;;;;;;0.30;0.30;;;12.00;99.90;;;;;;5105585;28;20208;-80
2022/10/14 01:04:09;;;;;;;0.47;0.47;;;12.00;99.90;;;;;;5118520;28;20259;-80
2022/10/14 01:06:41;;;;;;;0.40;0.40;;;12.00;99.90;;;;;;5118645;28;20596;-79
2022/10/14 01:09:18;;;;;;;0.40;0.40;;;11.90;99.90;;;;;;5106195;28;20178;-80
2022/10/14 01:12:09;;;;;;;0.50;0.50;;;11.90;99.90;;;;;;5099028;28;20204;-80
2022/10/14 01:14:37;;;;;;;0.50;0.50;;;11.90;99.90;;;;;;5099833;28;20272;-78
2022/10/14 01:17:14;;;;;;;0.47;0.47;;;12.00;99.90;;;;;;5104261;28;20224;-77
2022/10/14 01:19:48;;;;;;;0.60;0.60;;;12.00;99.90;;;;;;5110955;28;20193;-77
2022/10/14 01:22:25;;;;;;;0.50;0.50;;;12.00;99.90;;;;;;5123021;28;20181;-77
2022/10/14 01:25:22;;;;;;;0.40;0.40;;;12.00;99.90;;;;;;5121831;28;20177;-77
2022/10/14 01:28:22;;;;;;;0.50;0.50;;;12.00;99.90;;;;;;5086591;28;20211;-78
2022/10/14 01:30:51;;;;;;;0.60;0.60;;;12.00;99.90;;;;;;5124947;28;20201;-78
2022/10/14 01:33:25;;;;;;;0.50;0.50;;;11.30;99.90;;;;;;5123506;28;20253;-78
2022/10/14 01:36:09;;;;;;;0.50;0.50;;;12.00;99.90;;;;;;5123950;28;20195;-77
2022/10/14 01:38:40;;;;;;;0.50;0.50;;;11.90;99.90;;;;;;5106685;28;20462;-78
2022/10/14 01:41:12;;;;;;;0.30;0.30;;;11.90;99.90;;;;;;5115780;28;20228;-77
2022/10/14 01:43:39;;;;;;;0.50;0.50;;;12.00;99.90;;;;;;5118852;28;20222;-77
2022/10/14 01:46:07;;;;;;;0.50;0.50;;;12.00;99.90;;;;;;5106370;28;20217;-77
2022/10/14 01:48:35;;;;;;;0.40;0.40;;;12.00;99.90;;;;;;5108138;28;20173;-77
2022/10/14 01:51:06;;;;;;;0.40;0.40;;;12.00;99.90;;;;;;5107888;28;20212;-79
2022/10/14 01:53:38;;;;;;;0.50;0.50;;;12.00;99.90;;;;;;5095609;28;20174;-79
2022/10/14 01:56:06;;;;;;;0.50;0.50;;;12.00;99.90;;;;;;5094877;28;20552;-79
2022/10/14 01:58:33;;;;;;;0.50;0.50;;;11.90;99.90;;;;;;5108571;28;20174;-79
2022/10/14 02:01:02;;;;;;;0.47;0.47;;;12.00;99.90;;;;;;5111910;28;20278;-78
2022/10/14 02:03:41;;;;;;;0.50;0.50;;;11.90;99.90;;;;;;5116137;28;20177;-79
2022/10/14 02:06:19;;;;;;;0.40;0.40;;;12.00;99.90;;;;;;5117391;28;20177;-79
2022/10/14 02:09:13;;;;;;;0.43;0.43;;;12.00;99.90;;;;;;5099790;28;20579;-79
2022/10/14 02:12:08;;;;;;;0.50;0.50;;;12.00;99.90;;;;;;5105952;28;20269;-79
2022/10/14 02:14:47;;;;;;;0.50;0.50;;;12.00;99.90;;;;;;5111347;28;20184;-79
2022/10/14 02:17:25;;;;;;;0.40;0.40;;;12.00;99.90;;;;;;5100256;28;20203;-80
2022/10/14 02:20:17;;;;;;;0.50;0.50;;;12.00;99.90;;;;;;5115573;28;20253;-80
2022/10/14 02:22:50;;;;;;;0.50;0.50;;;12.00;99.90;;;;;;5119559;28;20188;-79
2022/10/14 02:25:27;;;;;;;0.50;0.50;;;12.00;99.90;;;;;;5125639;28;20181;-79
2022/10/14 02:27:53;;;;;;;0.50;0.50;;;12.00;99.90;;;;;;5121666;28;20196;-79
2022/10/14 02:30:20;;;;;;;0.40;0.40;;;12.00;99.90;;;;;;5111512;28;20197;-78
2022/10/14 02:32:48;;;;;;;0.50;0.50;;;12.10;99.90;;;;;;5119519;28;20226;-79
2022/10/14 02:35:17;;;;;;;0.50;0.50;;;12.10;99.90;;;;;;5118690;28;20185;-78
2022/10/14 02:37:46;;;;;;;0.40;0.40;;;12.10;99.90;;;;;;5119045;28;20193;-78
2022/10/14 02:40:20;;;;;;;0.50;0.50;;;12.10;99.90;;;;;;5117530;28;20385;-78
2022/10/14 02:42:46;;;;;;;0.40;0.40;;;12.20;99.90;;;;;;5099813;28;20268;-78
2022/10/14 02:45:13;;;;;;;0.50;0.50;;;12.20;99.90;;;;;;5112142;28;20215;-79
2022/10/14 02:47:38;;;;;;;0.50;0.50;;;12.20;99.90;;;;;;5099141;28;20178;-78
2022/10/14 02:50:04;;;;;;;0.50;0.50;;;12.20;99.90;;;;;;5098136;28;20255;-79
2022/10/14 02:52:30;;;;;;;0.50;0.50;;;12.20;99.90;;;;;;5113606;28;20188;-78
2022/10/14 02:54:55;;;;;;;0.50;0.50;;;12.20;99.90;;;;;;5118179;28;20184;-78
2022/10/14 02:57:21;;;;;;;0.50;0.50;;;12.20;99.90;;;;;;5098166;28;20682;-79
2022/10/14 02:59:46;;;;;;;0.40;0.40;;;12.20;99.90;;;;;;5095771;28;20254;-78
2022/10/14 03:02:12;;;;;;;0.50;0.50;;;12.20;99.90;;;;;;5111099;28;20222;-78
2022/10/14 03:04:37;;;;;;;0.50;0.50;;;12.20;99.90;;;;;;5116193;28;20177;-79
2022/10/14 03:07:03;;;;;;;0.43;0.43;;;12.30;99.90;;;;;;5115730;28;20177;-79
2022/10/14 03:09:29;;;;;;;0.40;0.40;;;12.80;99.90;;;;;;5103335;28;20213;-78
2022/10/14 03:11:54;;;;;;;0.50;0.50;;;12.30;99.90;;;;;;5104287;28;20216;-79
2022/10/14 03:14:20;;;;;;;0.47;0.47;;;12.30;99.90;;;;;;5096316;28;20178;-79
2022/10/14 03:16:45;;;;;;;0.50;0.50;;;12.30;99.90;;;;;;5096501;28;20178;-79
2022/10/14 03:19:11;;;;;;;0.50;0.50;;;12.30;99.90;;;;;;5093846;28;20186;-78
2022/10/14 03:21:36;;;;;;;0.50;0.50;;;12.30;99.90;;;;;;5093325;28;20198;-78
2022/10/14 03:24:02;;;;;;;0.60;0.60;;;12.30;99.90;;;;;;5093469;28;20633;-79
2022/10/14 03:26:28;;;;;;;0.40;0.40;;;12.30;99.90;;;;;;5106758;28;20207;-79
2022/10/14 03:28:53;;;;;;;0.40;0.40;;;12.20;99.90;;;;;;5112647;28;20289;-77
2022/10/14 03:31:19;;;;;;;0.40;0.40;;;12.10;99.90;;;;;;5111049;28;20192;-78
2022/10/14 03:33:44;;;;;;;0.40;0.40;;;12.10;99.90;;;;;;5127463;28;20210;-79
2022/10/14 03:36:11;;;;;;;0.40;0.40;;;12.00;99.90;;;;;;5117186;28;20193;-77
2022/10/14 03:38:37;;;;;;;0.40;0.40;;;12.00;99.90;;;;;;5117416;28;20228;-80
2022/10/14 03:41:03;;;;;;;0.40;0.40;;;12.00;99.90;;;;;;5113675;28;20213;-78
2022/10/14 03:43:29;;;;;;;0.40;0.40;;;12.00;99.90;;;;;;5127571;28;20182;-78
2022/10/14 03:45:54;;;;;;;0.50;0.50;;;11.90;99.90;;;;;;5130754;28;20180;-80
2022/10/14 03:48:20;;;;;;;0.50;0.50;;;11.90;99.90;;;;;;5128409;28;20685;-80
2022/10/14 03:50:46;;;;;;;0.43;0.43;;;12.00;99.90;;;;;;5103636;28;20753;-82
2022/10/14 03:53:12;;;;;;;0.40;0.40;;;11.90;99.90;;;;;;5099735;28;20181;-81
2022/10/14 03:55:37;;;;;;;0.40;0.40;;;11.90;99.90;;;;;;5099494;28;20188;-80
2022/10/14 03:58:04;;;;;;;0.40;0.40;;;11.90;99.90;;;;;;5099416;28;20665;-79
2022/10/14 04:00:29;;;;;;;0.40;0.40;;;11.90;99.90;;;;;;5111165;28;20248;-80
2022/10/14 04:02:55;;;;;;;0.50;0.50;;;11.90;99.90;;;;;;5118616;28;20575;-80
2022/10/14 04:05:20;;;;;;;0.50;0.50;;;11.90;99.90;;;;;;5116187;28;20657;-80
2022/10/14 04:07:46;;;;;;;0.60;0.60;;;11.80;99.90;;;;;;5098810;28;20181;-81
2022/10/14 04:10:11;;;;;;;0.50;0.50;;;11.80;99.90;;;;;;5098791;28;20702;-81
2022/10/14 04:12:39;;;;;;;0.60;0.60;;;11.80;99.90;;;;;;5101183;28;20314;-79
2022/10/14 04:15:06;;;;;;;0.40;0.40;;;11.80;99.90;;;;;;5119549;28;20236;-81
2022/10/14 04:17:32;;;;;;;0.50;0.50;;;11.80;99.90;;;;;;5119702;28;20181;-80
2022/10/14 04:19:57;;;;;;;0.40;0.40;;;11.80;99.90;;;;;;5110867;28;20646;-80
2022/10/14 04:22:23;;;;;;;0.50;0.50;;;11.80;99.90;;;;;;5108883;28;20185;-78
2022/10/14 04:24:49;;;;;;;0.40;0.40;;;11.80;99.90;;;;;;5118992;27;20177;-80
2022/10/14 04:27:15;;;;;;;0.40;0.40;;;11.80;99.90;;;;;;5118995;28;20550;-80
2022/10/14 04:29:41;;;;;;;0.50;0.50;;;11.80;99.90;;;;;;5099431;28;20208;-81
2022/10/14 04:32:07;;;;;;;0.50;0.50;;;11.80;99.90;;;;;;5099183;28;20165;-79
2022/10/14 04:34:32;;;;;;;0.70;0.70;;;11.80;99.90;;;;;;5103595;28;20174;-80
2022/10/14 04:36:58;;;;;;;0.40;0.40;;;11.80;99.90;;;;;;5096580;28;20601;-80
2022/10/14 04:39:23;;;;;;;0.50;0.50;;;11.90;99.90;;;;;;5113918;28;20189;-79
2022/10/14 04:41:49;;;;;;;0.50;0.50;;;11.90;99.90;;;;;;5112086;28;20213;-80
2022/10/14 04:44:14;;;;;;;0.40;0.40;;;11.90;99.90;;;;;;5109444;28;20165;-80
2022/10/14 04:46:40;;;;;;;0.50;0.50;;;12.00;99.90;;;;;;5117108;28;20173;-81
2022/10/14 04:49:07;;;;;;;0.40;0.40;;;11.90;99.90;;;;;;5101767;28;20177;-80
2022/10/14 04:51:32;;;;;;;0.40;0.40;;;11.90;99.90;;;;;;5103542;28;20714;-79
2022/10/14 04:53:59;;;;;;;0.50;0.50;;;11.80;99.90;;;;;;5111588;28;20189;-79
2022/10/14 04:56:24;;;;;;;0.47;0.47;;;11.80;99.90;;;;;;5110061;28;20161;-79
2022/10/14 04:58:50;;;;;;;0.50;0.50;;;11.80;99.90;;;;;;5116519;28;20202;-80
2022/10/14 05:01:17;;;;;;;0.50;0.50;;;11.80;99.90;;;;;;5116952;28;20213;-81
2022/10/14 05:03:43;;;;;;;0.50;0.50;;;11.80;99.90;;;;;;5114082;28;20612;-78
2022/10/14 05:06:09;;;;;;;0.40;0.40;;;11.80;99.90;;;;;;5117016;28;20223;-80
2022/10/14 05:08:35;;;;;;;0.50;0.50;;;11.80;99.90;;;;;;5106578;28;20263;-80
2022/10/14 05:11:01;;;;;;;0.50;0.50;;;11.80;99.90;;;;;;5095490;28;20197;-79
2022/10/14 05:13:27;;;;;;;0.40;0.40;;;11.80;99.90;;;;;;5095823;28;20177;-80
2022/10/14 05:15:53;;;;;;;0.50;0.50;;;11.80;99.90;;;;;;5096279;28;20188;-80
2022/10/14 05:18:18;;;;;;;0.47;0.47;;;11.80;99.90;;;;;;5102873;28;20252;-79
2022/10/14 05:20:44;;;;;;;0.50;0.50;;;11.80;99.90;;;;;;5104954;28;20270;-79
2022/10/14 05:23:09;;;;;;;0.40;0.40;;;11.70;99.90;;;;;;5110344;28;20177;-78
2022/10/14 05:25:35;;;;;;;0.50;0.50;;;11.70;99.90;;;;;;5100069;28;20177;-81
2022/10/14 05:28:01;;;;;;;0.50;0.50;;;11.70;99.90;;;;;;5096850;28;20209;-79
2022/10/14 05:30:26;;;;;;;0.40;0.40;;;11.70;99.90;;;;;;5103695;28;20325;-80
2022/10/14 05:32:52;;;;;;;0.47;0.47;;;11.70;99.90;;;;;;5116936;28;20306;-82
2022/10/14 05:35:17;;;;;;;0.50;0.50;;;11.70;99.90;;;;;;5103308;28;20242;-80
2022/10/14 05:37:43;;;;;;;0.40;0.40;;;11.70;99.90;;;;;;5111579;28;20329;-79
2022/10/14 05:40:09;;;;;;;0.50;0.50;;;11.70;99.90;;;;;;5112483;28;20667;-80
2022/10/14 05:42:34;;;;;;;0.40;0.40;;;11.70;99.90;;;;;;5102050;28;20177;-80
2022/10/14 05:45:00;;;;;;;0.47;0.47;;;11.70;99.90;;;;;;5113818;28;20181;-79
2022/10/14 05:47:25;;;;;;;0.50;0.50;;;11.70;99.90;;;;;;5115206;28;20259;-81
2022/10/14 05:49:51;;;;;;;0.40;0.40;;;12.30;99.90;;;;;;5098674;28;20170;-79
2022/10/14 05:52:17;;;;;;;0.50;0.50;;;11.70;99.90;;;;;;5095207;28;20585;-78
2022/10/14 05:54:43;;;;;;;0.50;0.50;;;11.70;99.90;;;;;;5096568;28;20173;-80
2022/10/14 05:57:08;;;;;;;0.50;0.50;;;11.80;99.90;;;;;;5109573;28;20222;-79
2022/10/14 05:59:34;;;;;;;0.50;0.50;;;11.70;99.90;;;;;;5115634;28;20177;-79
2022/10/14 06:02:00;;;;;;;0.40;0.40;;;11.80;99.90;;;;;;5099743;28;20869;-78
2022/10/14 06:04:26;;;;;;;0.60;0.60;;;11.80;99.90;;;;;;5118066;28;20677;-80
2022/10/14 06:06:51;;;;;;;0.40;0.40;;;11.80;99.90;;;;;;5106390;28;20186;-82
2022/10/14 06:09:17;;;;;;;0.40;0.40;;;11.80;99.90;;;;;;5094242;28;20857;-80
2022/10/14 06:11:44;;;;;;;0.50;0.50;;;11.80;99.90;;;;;;5094854;28;20305;-81
2022/10/14 06:14:09;;;;;;;0.60;0.60;;;11.90;99.90;;;;;;5098404;28;20677;-80
2022/10/14 06:16:35;;;;;;;0.47;0.47;;;11.90;99.90;;;;;;5106495;28;20185;-79
2022/10/14 06:19:00;;;;;;;0.40;0.40;;;11.90;99.90;;;;;;5108084;28;20180;-80
2022/10/14 06:21:26;;;;;;;0.60;0.60;;;11.90;99.90;;;;;;5115494;28;20613;-79
2022/10/14 06:23:52;;;;;;;0.50;0.50;;;11.90;99.90;;;;;;5098536;28;20201;-82
2022/10/14 06:26:17;;;;;;;0.50;0.50;;;12.00;99.90;;;;;;5108165;28;20230;-78
2022/10/14 06:28:43;;;;;;;0.43;0.43;;;12.00;99.90;;;;;;5115681;28;20318;-80
2022/10/14 06:31:08;;;;;;;0.50;0.50;;;12.00;99.90;;;;;;5103722;28;20200;-80
2022/10/14 06:33:34;;;;;;;0.50;0.50;;;12.10;99.90;;;;;;5101963;28;20169;-79
2022/10/14 06:36:04;;;;;;;0.50;0.50;;;12.10;99.90;;;;;;5107742;28;20195;-80
2022/10/14 06:38:30;;;;;;;0.50;0.50;;;12.10;99.90;;;;;;5113304;28;20190;-79
2022/10/14 06:40:55;;;;;;;0.50;0.50;;;12.10;99.90;;;;;;5103803;28;20693;-79
2022/10/14 06:43:21;;;;;;;0.50;0.50;;;12.20;99.90;;;;;;5097505;28;20651;-79
2022/10/14 06:45:47;;;;;;;0.50;0.50;;;12.30;99.90;;;;;;5094247;28;20549;-78
2022/10/14 06:48:13;;;;;;;0.50;0.50;;;12.40;99.90;;;;;;5096018;28;20588;-80
2022/10/14 06:50:41;;;;;;;0.40;0.40;;;12.40;99.90;;;;;;5100832;28;20197;-79
2022/10/14 06:53:07;;;;;;;0.40;0.40;;;12.40;99.90;;;;;;5105144;28;20177;-78
2022/10/14 06:55:33;;;;;;;0.50;0.50;;;12.40;99.90;;;;;;5091380;28;20221;-79
2022/10/14 06:57:59;;;;;;;0.50;0.50;;;12.50;99.90;;;;;;5096348;28;20355;-79
2022/10/14 07:00:24;;;;;;;0.40;0.40;;;12.50;99.90;;;;;;5097422;28;20213;-78
2022/10/14 07:02:50;;;;;;;0.50;0.50;;;12.50;99.90;;;;;;5096958;28;20685;-80
2022/10/14 07:05:15;;;;;;;0.40;0.40;;;12.50;99.90;;;;;;5095725;28;20182;-78
2022/10/14 07:07:41;;;;;;;0.50;0.50;;;12.60;99.90;;;;;;5094435;28;20188;-78
2022/10/14 07:10:07;;;;;;;0.50;0.50;;;12.60;99.90;;;;;;5095181;28;20228;-80
2022/10/14 07:12:32;;;;;;;0.50;0.50;;;12.60;99.90;;;;;;5096167;28;20859;-78
2022/10/14 07:14:58;;;;;;;0.40;0.40;;;12.70;99.90;;;;;;5090345;28;20174;-77
2022/10/14 07:17:23;;;;;;;0.50;0.50;;;12.70;99.90;;;;;;5099571;28;20187;-79
2022/10/14 07:19:49;;;;;;;0.40;0.40;;;12.60;99.90;;;;;;5097595;28;20709;-77
2022/10/14 07:22:16;;;;;;;0.50;0.50;;;12.70;99.90;;;;;;5093731;28;20170;-78
2022/10/14 07:24:42;;;;;;;0.50;0.50;;;12.70;99.90;;;;;;5078318;28;20212;-79
2022/10/14 07:27:08;;;;;;;0.50;0.50;;;12.70;99.90;;;;;;5077203;28;20185;-79
2022/10/14 07:29:34;;;;;;;0.50;0.50;;;12.70;99.90;;;;;;5091349;28;20186;-79
2022/10/14 07:31:59;;;;;;;0.40;0.40;;;12.90;99.90;;;;;;5098779;28;20193;-79
2022/10/14 07:34:25;;;;;;;0.40;0.40;;;12.90;99.90;;;;;;5113948;28;20204;-78
2022/10/14 07:36:50;;;;;;;0.50;0.50;;;12.90;99.90;;;;;;5101605;28;20182;-78
2022/10/14 07:39:16;;;;;;;0.40;0.40;;;13.00;99.90;;;;;;5093552;28;20181;-79
2022/10/14 07:41:42;;;;;;;0.57;0.57;;;13.00;99.90;;;;;;5090826;28;20233;-79
2022/10/14 07:44:08;;;;;;;0.40;0.40;;;13.00;99.90;;;;;;5089809;28;20178;-79
2022/10/14 07:46:37;;;;;;;0.40;0.40;;;13.10;99.90;;;;;;5095696;28;20651;-78
2022/10/14 07:49:17;;;;;;;0.50;0.50;;;13.10;99.90;;;;;;5091564;28;20591;-78
2022/10/14 07:51:43;;;;;;;0.40;0.40;;;13.10;99.90;;;;;;5087180;28;20746;-78
2022/10/14 07:54:17;;;;;;;0.50;0.50;;;13.20;99.90;;;;;;5084972;28;20232;-79
2022/10/14 07:56:44;;;;;;;0.50;0.50;;;13.20;99.90;;;;;;5095049;28;20246;-78
2022/10/14 07:59:10;;;;;;;0.40;0.40;;;13.30;99.90;;;;;;5085520;28;20182;-77
2022/10/14 08:01:36;;;;;;;0.57;0.57;;;13.40;99.90;;;;;;5090234;28;20267;-79
2022/10/14 08:04:02;;;;;;;0.47;0.47;;;13.40;99.90;;;;;;5087234;28;20183;-77
2022/10/14 08:06:28;;;;;;;0.50;0.50;;;13.40;99.90;;;;;;5089372;28;20207;-78
2022/10/14 08:08:54;;;;;;;0.40;0.40;;;13.40;99.90;;;;;;5089169;28;20190;-78
2022/10/14 08:11:25;;;;;;;0.40;0.40;;;13.50;99.90;;;;;;5096425;28;20704;-80
2022/10/14 08:13:51;;;;;;;0.40;0.40;;;13.50;99.90;;;;;;5095583;28;20193;-78
2022/10/14 08:16:18;;;;;;;0.50;0.50;;;13.70;99.90;;;;;;5098326;28;20170;-79
2022/10/14 08:18:45;;;;;;;0.30;0.30;;;13.80;99.90;;;;;;5090563;28;20430;-80
2022/10/14 08:21:11;;;;;;;0.47;0.47;;;13.80;99.90;;;;;;5095215;28;20222;-80
2022/10/14 08:23:36;;;;;;;0.50;0.50;;;13.90;99.90;;;;;;5112534;28;20200;-79
2022/10/14 08:26:03;;;;;;;0.40;0.40;;;13.70;99.90;;;;;;5104781;28;20177;-82
2022/10/14 08:28:29;;;;;;;0.40;0.40;;;13.70;99.90;;;;;;5105700;28;20295;-83
2022/10/14 08:30:54;;;;;;;0.53;0.53;;;13.70;99.90;;;;;;5099460;28;20232;-82
2022/10/14 08:33:20;;;;;;;0.50;0.50;;;13.80;99.90;;;;;;5100224;28;20190;-82
2022/10/14 08:35:46;;;;;;;0.40;0.40;;;13.80;99.90;;;;;;5103714;28;20182;-80
2022/10/14 08:38:11;;;;;;;0.60;0.60;;;13.80;99.90;;;;;;5102387;28;20170;-83
2022/10/14 08:40:53;;;;;;;0.40;0.40;;;13.80;99.90;;;;;;5110383;28;20741;-79
2022/10/14 08:43:31;;;;;;;0.53;0.53;;;13.90;99.90;;;;;;5109575;28;20186;-81
2022/10/14 08:46:08;;;;;;;0.40;0.40;;;13.90;99.90;;;;;;5099257;28;20178;-81
2022/10/14 08:48:35;;;;;;;0.50;0.50;;;14.00;99.90;;;;;;5099332;28;20446;-81
2022/10/14 08:51:07;;;;;;;0.50;0.50;;;14.30;99.90;;;;;;5103827;28;20229;-82
2022/10/14 08:53:48;;;;;;;0.60;0.60;;;14.20;99.90;;;;;;5097719;28;20217;-81
2022/10/14 08:56:14;;;;;;;0.50;0.50;;;14.30;99.90;;;;;;5104187;28;20657;-81
2022/10/14 08:58:48;;;;;;;0.50;0.50;;;14.50;99.90;;;;;;5101436;28;20201;-82
2022/10/14 09:01:48;;;;;;;0.40;0.40;;;14.60;99.90;;;;;;5100867;28;20223;-80
2022/10/14 09:04:15;;;;;;;0.47;0.47;;;14.70;99.90;;;;;;5095714;28;20183;-82
2022/10/14 09:06:44;;;;;;;0.60;0.60;;;14.90;99.90;;;;;;5108584;28;20241;-81
2022/10/14 09:09:39;;;;;;;0.50;0.50;;;15.00;99.90;;;;;;5101353;28;20261;-82
2022/10/14 09:12:11;;;;;;;0.40;0.40;;;15.10;99.90;;;;;;5098216;28;20210;-83
2022/10/14 09:14:41;;;;;;;0.50;0.50;;;15.20;99.90;;;;;;5126646;28;20197;-82
2022/10/14 09:17:20;;;;;;;0.50;0.50;;;15.30;99.90;;;;;;5097062;28;20182;-84
2022/10/14 09:20:15;;;;;;;0.40;0.40;;;15.20;99.90;;;;;;5109369;28;20286;-82
2022/10/14 09:22:41;;;;;;;0.40;0.40;;;15.20;99.90;;;;;;5085350;28;20192;-83
2022/10/14 09:25:15;;;;;;;0.50;0.50;;;15.20;99.90;;;;;;5089761;28;20162;-80
2022/10/14 09:27:41;;;;;;;0.40;0.40;;;15.40;99.90;;;;;;5105430;28;20177;-80
2022/10/14 09:30:13;;;;;;;0.40;0.40;;;15.50;99.90;;;;;;5111651;28;20196;-82
2022/10/14 09:32:48;;;;;;;0.40;0.40;;;15.60;99.90;;;;;;5115030;28;20180;-81
2022/10/14 09:35:34;;;;;;;0.40;0.40;;;15.70;99.90;;;;;;5106760;28;20177;-82
2022/10/14 09:38:00;;;;;;;0.40;0.40;;;15.80;99.90;;;;;;5117627;28;20322;-82
2022/10/14 09:40:41;;;;;;;0.30;0.30;;;15.80;99.90;;;;;;5104326;28;20237;-84
2022/10/14 09:43:10;;;;;;;0.40;0.40;;;15.90;99.90;;;;;;5110392;28;20181;-84
2022/10/14 09:46:09;;;;;;;0.40;0.40;;;16.10;99.90;;;;;;5115048;28;20245;-83
2022/10/14 09:48:38;;;;;;;0.40;0.40;;;16.20;99.90;;;;;;5107528;28;20184;-79
2022/10/14 09:51:39;;;;;;;0.40;0.40;;;16.10;97.70;;;;;;5116425;28;20186;-84
2022/10/14 09:54:05;;;;;;;0.30;0.30;;;16.20;99.90;;;;;;5076449;28;20189;-86
2022/10/14 09:56:36;;;;;;;0.40;0.40;;;16.20;99.90;;;;;;5104387;28;20237;-81
2022/10/14 09:59:03;;;;;;;0.40;0.40;;;16.30;99.90;;;;;;5098452;28;20169;-82
2022/10/14 10:01:39;;;;;;;0.30;0.30;;;16.30;83.40;;;;;;5096630;28;20326;-81
2022/10/14 10:04:46;;;;;;;0.30;0.30;;;16.50;51.50;;;;;;5110682;28;20195;-80
2022/10/14 10:07:33;;;;;;;0.40;0.40;;;16.60;1.00;;;;;;5014390;28;20184;-80
2022/10/14 10:10:04;;;;;;;0.40;0.40;;;16.50;36.30;;;;;;5013461;28;20193;-83
2022/10/14 10:12:33;;;;;;;0.40;0.40;;;16.70;1.00;;;;;;5057018;28;20182;-83
2022/10/14 10:15:05;;;;;;;0.40;0.40;;;16.80;1.00;;;;;;5077083;28;20206;-81
2022/10/14 10:17:34;;;;;;;0.40;0.40;;;17.10;1.00;;;;;;5084796;28;20212;-82
2022/10/14 10:20:32;;;;;;;0.40;0.40;;;17.00;1.00;;;;;;5108289;28;20205;-82
2022/10/14 10:23:27;;;;;;;0.40;0.40;;;16.70;1.00;;;;;;5102257;28;20188;-82
2022/10/14 10:25:53;;;;;;;0.40;0.40;;;17.20;1.00;;;;;;5096595;28;20181;-80
2022/10/14 10:28:31;;;;;;;0.50;0.50;;;17.30;1.00;;;;;;5097607;28;20177;-81
2022/10/14 10:31:31;;;;;;;0.30;0.30;;;17.30;1.00;;;;;;5102720;28;20245;-83
2022/10/14 10:34:02;;;;;;;0.40;0.40;;;17.30;1.00;;;;;;5090409;28;20619;-83
2022/10/14 10:36:34;;;;;;;0.30;0.30;;;17.30;1.00;;;;;;5099062;28;20240;-83
2022/10/14 10:39:29;;;;;;;0.40;0.40;;;17.10;1.00;;;;;;5092352;28;20181;-83
2022/10/14 10:42:05;;;;;;;0.40;0.40;;;17.20;1.00;;;;;;5095246;28;20213;-84
2022/10/14 10:44:44;;;;;;;0.50;0.50;;;17.00;1.00;;;;;;5103926;28;20267;-83
2022/10/14 10:47:30;;;;;;;0.40;0.40;;;16.90;1.00;;;;;;5116587;28;20170;-85
2022/10/14 10:50:25;;;;;;;0.40;0.40;;;16.80;1.00;;;;;;5095162;28;20196;-82
2022/10/14 10:53:09;;;;;;;0.50;0.50;;;16.90;1.00;;;;;;5098855;28;20176;-85
2022/10/14 10:55:54;;;;;;;0.40;0.40;;;16.80;1.00;;;;;;5104288;28;20201;-85
2022/10/14 10:58:47;;;;;;;0.40;0.40;;;17.20;29.50;;;;;;5125822;28;20176;-86
2022/10/14 11:01:32;;;;;;;0.40;0.40;;;16.80;27.30;;;;;;5127116;27;20198;-87
2022/10/14 11:04:24;;;;;;;0.30;0.30;;;16.80;14.80;;;;;;5117155;28;20195;-87
2022/10/14 11:13:22;;;;;;;0.40;0.40;;;16.70;7.50;;;;;;5108153;28;20232;-85
2022/10/14 11:16:06;;;;;;;0.50;0.50;;;16.70;1.00;;;;;;5093008;28;20194;-84
2022/10/14 11:19:02;;;;;;;0.40;0.40;;;16.70;1.00;;;;;;5106848;28;20178;-83
2022/10/14 11:21:52;;;;;;;0.40;0.40;;;16.60;1.00;;;;;;5096901;28;20245;-84
2022/10/14 11:24:33;;;;;;;0.47;0.47;;;16.60;1.00;;;;;;5101611;28;20186;-84
2022/10/14 11:27:07;;;;;;;0.40;0.40;;;16.60;1.00;;;;;;5097860;28;20181;-85
2022/10/14 11:29:53;;;;;;;0.33;0.33;;;16.50;5.40;;;;;;5101993;28;20168;-83
2022/10/14 11:32:40;;;;;;;0.50;0.50;;;16.50;1.00;;;;;;5096751;28;20178;-87
2022/10/14 11:35:28;;;;;;;0.40;0.40;;;16.30;1.00;;;;;;5099601;28;20180;-85
2022/10/14 11:38:11;;;;;;;0.50;0.50;;;16.10;15.00;;;;;;5099399;28;20185;-84
2022/10/14 11:40:54;;;;;;;0.40;0.40;;;16.00;38.90;;;;;;5098900;28;20221;-85
2022/10/14 11:43:47;;;;;;;0.43;0.43;;;16.00;83.80;;;;;;5098168;28;20181;-83
2022/10/14 11:46:18;;;;;;;0.40;0.40;;;16.00;74.30;;;;;;5099864;28;20623;-85
2022/10/14 11:48:55;;;;;;;0.40;0.40;;;16.10;96.10;;;;;;5096230;28;20186;-84
2022/10/14 11:51:31;;;;;;;0.33;0.33;;;16.10;64.60;;;;;;5099546;28;20717;-86
2022/10/14 11:54:03;;;;;;;0.40;0.40;;;16.20;24.90;;;;;;5106518;28;20521;-84
2022/10/14 11:56:40;;;;;;;0.40;0.40;;;16.50;48.80;;;;;;5101154;28;20174;-84
2022/10/14 11:59:42;;;;;;;0.40;0.40;;;16.70;1.00;;;;;;5103917;28;20186;-84
2022/10/14 12:02:26;;;;;;;0.40;0.40;;;17.00;1.00;;;;;;5092263;28;20186;-85
2022/10/14 12:05:05;;;;;;;0.40;0.40;;;17.40;1.00;;;;;;5101841;28;20178;-83
2022/10/14 12:07:44;;;;;;;0.37;0.37;;;17.60;1.00;;;;;;5099687;28;20188;-82
2022/10/14 12:10:34;;;;;;;0.40;0.40;;;17.70;1.00;;;;;;5105136;28;20224;-82
2022/10/14 12:13:00;;;;;;;0.37;0.37;;;17.40;1.00;;;;;;5104087;28;20207;-83
2022/10/14 12:15:27;;;;;;;0.40;0.40;;;17.30;1.00;;;;;;5100957;28;20178;-82
2022/10/14 12:17:57;;;;;;;0.37;0.37;;;17.30;1.00;;;;;;5098127;28;20178;-82
2022/10/14 12:20:43;;;;;;;0.40;0.40;;;17.30;1.00;;;;;;5103509;28;20269;-83
2022/10/14 12:23:14;;;;;;;0.40;0.40;;;17.30;1.00;;;;;;5101019;28;20171;-84
2022/10/14 12:25:55;;;;;;;0.30;0.30;;;17.90;1.00;;;;;;5102635;28;20189;-83
2022/10/14 12:28:21;;;;;;;0.40;0.40;;;17.60;1.00;;;;;;5097477;28;20197;-84
2022/10/14 12:30:47;;;;;;;0.40;0.40;;;17.60;1.00;;;;;;5102126;28;20207;-84
2022/10/14 12:33:16;;;;;;;0.30;0.30;;;17.50;1.00;;;;;;5107390;28;20235;-84
2022/10/14 12:35:50;;;;;;;0.40;0.40;;;17.30;1.00;;;;;;5117043;28;20785;-85
2022/10/14 12:38:17;;;;;;;0.40;0.40;;;17.30;1.00;;;;;;5119350;28;20185;-85
2022/10/14 12:40:42;;;;;;;0.50;0.50;;;17.70;1.00;;;;;;5105703;28;20229;-86
2022/10/14 12:43:22;;;;;;;0.33;0.33;;;17.10;1.00;;;;;;5102858;28;20295;-84
2022/10/14 12:46:15;;;;;;;0.40;0.40;;;17.10;1.00;;;;;;5105580;28;20199;-87
2022/10/14 12:48:49;;;;;;;0.40;0.40;;;17.20;1.00;;;;;;5084657;28;20175;-87
2022/10/14 12:51:21;;;;;;;0.40;0.40;;;17.20;1.00;;;;;;5093493;28;20228;-85
2022/10/14 12:54:12;;;;;;;0.40;0.40;;;17.60;1.00;;;;;;5116616;28;20173;-86
2022/10/14 12:56:53;;;;;;;0.50;0.50;;;17.10;1.00;;;;;;5115834;28;20225;-86
2022/10/14 12:59:37;;;;;;;0.40;0.40;;;17.20;1.00;;;;;;5090240;28;20174;-86
2022/10/14 13:02:26;;;;;;;0.30;0.30;;;17.00;1.00;;;;;;5102707;28;20258;-84
2022/10/14 13:04:53;;;;;;;0.50;0.50;;;17.00;1.00;;;;;;5096521;28;20177;-87
2022/10/14 13:07:25;;;;;;;0.40;0.40;;;17.10;1.00;;;;;;5097709;28;20883;-86
2022/10/14 13:10:19;;;;;;;0.40;0.40;;;17.10;1.00;;;;;;5109215;28;20264;-82
2022/10/14 13:12:44;;;;;;;0.30;0.30;;;17.10;1.00;;;;;;5092177;28;20196;-85
2022/10/14 13:15:34;;;;;;;0.40;0.40;;;17.10;1.00;;;;;;5105642;28;20205;-86
2022/10/14 13:18:33;;;;;;;0.50;0.50;;;17.10;1.00;;;;;;5111533;28;20594;-84